Time;durP1;ratioP1;P1;durP2;ratioP2;P2;SDS_P1;SDS_P2;PMS_P1;PMS_P2;Temp;Humidity;BMP_temperature;BMP_pressure;BME280_temperature;BME280_humidity;BME280_pressure;Samples;Min_cycle;Max_cycle;Signal;HPM_P1;HPM_P2
2022/09/19 00:01:37;;;;;;;13.68;2.45;;;;;;;12.91;62.42;101686.22;4885241;28;123963;-71
2022/09/19 00:04:07;;;;;;;7.22;2.17;;;;;;;12.90;62.13;101681.81;4865651;28;124051;-71
2022/09/19 00:06:36;;;;;;;17.55;1.90;;;;;;;12.89;62.01;101680.09;4869515;28;120539;-71
2022/09/19 00:09:06;;;;;;;8.77;2.28;;;;;;;12.88;62.22;101683.66;4880075;28;119212;-71
2022/09/19 00:11:33;;;;;;;15.55;2.30;;;;;;;12.89;62.23;101680.09;4873306;28;124278;-71
2022/09/19 00:14:01;;;;;;;10.73;2.05;;;;;;;12.88;62.02;101678.34;4868737;28;124156;-71
2022/09/19 00:16:30;;;;;;;9.98;2.33;;;;;;;12.87;62.15;101687.28;4870459;28;118986;-71
2022/09/19 00:19:00;;;;;;;9.63;2.22;;;;;;;12.85;62.05;101673.19;4869950;28;120631;-71
2022/09/19 00:21:29;;;;;;;14.50;1.98;;;;;;;12.84;62.08;101671.44;4868940;28;122966;-70
2022/09/19 00:26:45;;;;;;;17.38;2.03;;;;;;;12.83;62.09;101680.38;4867580;28;119108;-71
2022/09/19 00:29:15;;;;;;;8.63;2.03;;;;;;;12.82;62.05;101665.31;4870316;28;119425;-71
2022/09/19 00:31:44;;;;;;;13.88;2.15;;;;;;;12.80;62.05;101669.84;4867348;28;125118;-71
2022/09/19 00:34:14;;;;;;;14.20;2.10;;;;;;;12.80;62.09;101677.81;4880020;28;124309;-70
2022/09/19 00:36:42;;;;;;;13.32;2.20;;;;;;;12.80;62.09;101677.81;4870230;28;118294;-70
2022/09/19 00:39:11;;;;;;;10.10;2.20;;;;;;;12.80;62.03;101685.78;4870316;28;118862;-71
2022/09/19 00:41:38;;;;;;;16.67;2.40;;;;;;;12.79;62.16;101684.03;4870337;28;124584;-71
2022/09/19 00:44:25;;;;;;;13.55;2.08;;;;;;;12.76;62.04;101684.19;4868476;28;123676;-71
2022/09/19 00:47:08;;;;;;;10.68;2.20;;;;;;;12.74;62.16;101686.06;4864601;28;118178;-70
2022/09/19 00:49:40;;;;;;;15.05;2.20;;;;;;;12.74;62.05;101680.72;4869878;28;119509;-70
2022/09/19 00:52:13;;;;;;;11.70;1.90;;;;;;;12.72;62.15;101687.91;4867248;28;124450;-71
2022/09/19 00:54:43;;;;;;;11.35;2.15;;;;;;;12.71;62.09;101686.16;4870312;28;123240;-70
2022/09/19 00:57:13;;;;;;;11.93;2.22;;;;;;;12.70;61.88;101684.44;4884766;28;119146;-71
2022/09/19 00:59:51;;;;;;;9.60;1.88;;;;;;;12.69;62.11;101688.03;4876449;28;119893;-70
2022/09/19 01:02:21;;;;;;;10.65;2.08;;;;;;;12.68;62.17;101691.59;4872530;28;124708;-71
2022/09/19 01:04:48;;;;;;;11.82;1.85;;;;;;;12.68;62.12;101696.91;4885360;28;124311;-70
2022/09/19 01:07:43;;;;;;;10.77;2.20;;;;;;;12.66;62.02;101695.19;4868832;28;119296;-71
2022/09/19 01:10:17;;;;;;;17.63;2.60;;;;;;;12.66;62.21;101705.81;4865855;28;119638;-70
2022/09/19 01:13:16;;;;;;;9.00;2.00;;;;;;;12.65;61.95;101704.09;4863866;28;123750;-70
2022/09/19 01:15:43;;;;;;;15.23;2.25;;;;;;;12.66;62.08;101705.81;4879418;28;123573;-70
2022/09/19 01:18:10;;;;;;;9.23;2.17;;;;;;;12.65;62.01;101709.41;4868448;28;118530;-70
2022/09/19 01:21:37;;;;;;;11.43;1.88;;;;;;;12.65;62.01;101714.72;4872186;28;118823;-70
2022/09/19 01:24:37;;;;;;;10.65;2.17;;;;;;;12.65;61.90;101709.41;4866702;28;124231;-71
2022/09/19 01:27:19;;;;;;;13.32;1.90;;;;;;;12.65;61.99;101709.41;4800912;29;123667;-70
2022/09/19 01:30:03;;;;;;;11.63;1.98;;;;;;;12.68;61.99;101718.16;4804635;29;118619;-71
2022/09/19 01:32:49;;;;;;;11.35;2.22;;;;;;;12.69;62.15;101717.25;4854773;28;118435;-70
2022/09/19 01:35:23;;;;;;;12.18;2.30;;;;;;;12.69;61.83;101725.22;4881856;28;123152;-71
2022/09/19 01:38:00;;;;;;;12.00;1.90;;;;;;;12.69;61.80;101715.47;4867592;28;124871;-70
2022/09/19 01:40:28;;;;;;;15.75;2.17;;;;;;;12.71;61.94;101718.06;4883638;28;118261;-71
2022/09/19 01:42:59;;;;;;;12.40;2.17;;;;;;;12.71;61.78;101718.06;4883916;28;119233;-71
2022/09/19 01:45:31;;;;;;;8.23;1.73;;;;;;;12.72;61.97;101719.81;4869195;28;123791;-71
2022/09/19 01:48:20;;;;;;;11.40;2.40;;;;;;;12.70;61.76;101721.66;4883252;28;123304;-70
2022/09/19 01:51:04;;;;;;;8.18;1.98;;;;;;;12.69;61.69;101719.91;4879542;28;119189;-71
2022/09/19 01:53:48;;;;;;;9.73;2.20;;;;;;;12.66;61.97;101727.09;4871374;28;119483;-71
2022/09/19 01:56:30;;;;;;;13.32;2.38;;;;;;;12.68;61.73;101728.81;4879746;28;123529;-70
2022/09/19 01:59:13;;;;;;;14.32;2.00;;;;;;;12.66;61.94;101732.41;4866221;28;123038;-70
2022/09/19 02:02:08;;;;;;;16.98;2.33;;;;;;;12.64;62.06;101726.28;4860497;28;118895;-70
2022/09/19 02:04:59;;;;;;;10.47;1.60;;;;;;;12.65;61.96;101730.66;4883308;28;117661;-70
2022/09/19 02:07:42;;;;;;;13.52;2.20;;;;;;;12.64;61.87;101734.25;4867910;28;124089;-71
2022/09/19 02:10:29;;;;;;;19.05;2.22;;;;;;;12.65;62.02;101729.81;4853930;28;123670;-70
2022/09/19 02:13:03;;;;;;;11.48;2.00;;;;;;;12.65;62.01;101730.66;4868242;28;120003;-71
2022/09/19 02:15:59;;;;;;;14.75;2.17;;;;;;;12.66;62.22;101724.44;4866341;28;119293;-71
2022/09/19 02:18:33;;;;;;;13.30;2.28;;;;;;;12.69;62.34;101730.53;4885130;28;123177;-71
2022/09/19 02:21:07;;;;;;;9.95;2.00;;;;;;;12.70;62.26;101726.97;4868693;28;124100;-71
2022/09/19 02:23:39;;;;;;;14.93;2.05;;;;;;;12.73;62.21;101735.66;4867659;28;119653;-70
2022/09/19 02:26:09;;;;;;;11.10;2.05;;;;;;;12.76;62.45;101726.72;4882736;28;118236;-71
2022/09/19 02:28:42;;;;;;;12.18;1.98;;;;;;;12.79;62.44;101734.56;4872119;28;123271;-71
2022/09/19 02:31:14;;;;;;;;;;;;;;;12.79;62.37;101731.91;4877725;28;122903;-71
2022/09/19 02:33:47;;;;;;;14.43;2.03;;;;;;;12.83;62.09;101728.22;4871350;28;119605;-71
2022/09/19 02:36:36;;;;;;;10.98;2.22;;;;;;;12.84;62.25;101740.56;4884381;28;118657;-71
2022/09/19 02:39:20;;;;;;;10.50;1.90;;;;;;;12.82;62.14;101731.78;4863122;28;124015;-71
2022/09/19 02:42:00;;;;;;;10.70;2.10;;;;;;;12.83;62.04;101733.53;4883944;28;123084;-71
2022/09/19 02:44:38;;;;;;;11.00;2.30;;;;;;;12.82;62.02;101737.97;4855012;28;119467;-71
2022/09/19 02:47:11;;;;;;;9.93;1.90;;;;;;;12.83;62.00;101730.88;4866523;28;119129;-71
2022/09/19 02:49:43;;;;;;;10.82;2.17;;;;;;;12.83;62.17;101726.41;4854934;28;124488;-71
2022/09/19 02:52:28;;;;;;;10.60;2.17;;;;;;;12.82;62.00;101729.97;4885821;28;123118;-72
2022/09/19 02:55:04;;;;;;;11.10;1.88;;;;;;;12.83;62.07;101733.53;4871383;28;118497;-71
2022/09/19 02:57:33;;;;;;;12.30;2.13;;;;;;;12.83;61.80;101738.84;4857428;28;118064;-71
2022/09/19 03:00:04;;;;;;;11.25;1.83;;;;;;;12.84;62.12;101735.25;4872072;28;98660;-71
2022/09/19 03:02:45;;;;;;;9.27;1.90;;;;;;;12.85;61.82;101742.31;4885978;28;123130;-71
2022/09/19 03:05:27;;;;;;;12.52;2.10;;;;;;;12.84;62.12;101743.22;4884821;28;118806;-71
2022/09/19 03:08:03;;;;;;;12.48;1.95;;;;;;;12.84;62.04;101740.56;4854332;28;118618;-71
2022/09/19 03:10:33;;;;;;;;;;;;;;;12.84;61.93;101740.56;4869129;28;124257;-71
2022/09/19 03:13:11;;;;;;;7.50;1.55;;;;;;;12.87;62.08;101740.44;4868519;28;124067;-71
2022/09/19 03:15:56;;;;;;;15.68;1.80;;;;;;;12.87;62.09;101751.09;4869430;28;117748;-71
2022/09/19 03:18:34;;;;;;;9.88;1.80;;;;;;;12.89;61.95;101754.53;4868544;28;117803;-71
2022/09/19 03:21:06;;;;;;;9.00;1.85;;;;;;;12.90;61.87;101745.63;4869354;28;123387;-71
2022/09/19 03:23:40;;;;;;;10.32;2.25;;;;;;;12.92;62.14;101749.13;4862085;28;124024;-71
2022/09/19 03:26:10;;;;;;;10.35;1.85;;;;;;;12.97;62.15;101759.56;4885300;28;118772;-71
2022/09/19 03:28:38;;;;;;;12.65;2.00;;;;;;;12.99;62.06;101761.22;4885806;28;118608;-71
2022/09/19 03:31:07;;;;;;;14.05;2.17;;;;;;;13.04;62.10;101772.53;4872258;28;124845;-71
2022/09/19 03:33:35;;;;;;;12.73;1.80;;;;;;;13.09;62.05;101782.13;4869459;28;123824;-71
2022/09/19 03:36:07;;;;;;;11.23;1.80;;;;;;;13.11;62.01;101769.63;4868009;28;120448;-71
2022/09/19 03:38:44;;;;;;;9.52;1.80;;;;;;;13.16;62.14;101767.66;4880225;28;119278;-71
2022/09/19 03:41:21;;;;;;;11.40;2.30;;;;;;;13.20;62.19;101763.94;4868381;28;123315;-71
2022/09/19 03:43:49;;;;;;;13.25;1.95;;;;;;;13.24;62.07;101754.88;4870607;28;123593;-71
2022/09/19 03:46:22;;;;;;;8.88;2.00;;;;;;;13.28;62.01;101756.50;4870139;28;118554;-71
2022/09/19 03:48:50;;;;;;;11.05;2.13;;;;;;;13.31;62.13;101753.75;4884359;28;118783;-71
2022/09/19 03:51:18;;;;;;;10.52;1.90;;;;;;;13.32;62.05;101763.47;4871125;28;124299;-71
2022/09/19 03:53:46;;;;;;;8.30;2.00;;;;;;;13.35;61.96;101763.31;4869594;28;123226;-71
2022/09/19 03:56:16;;;;;;;8.00;2.20;;;;;;;13.37;61.93;101765.91;4880047;28;119084;-71
2022/09/19 03:58:43;;;;;;;12.45;2.17;;;;;;;13.39;61.81;101770.25;4868980;28;118962;-71
2022/09/19 04:01:14;;;;;;;10.10;2.03;;;;;;;13.39;61.78;101754.31;4886785;28;124056;-71
2022/09/19 04:03:49;;;;;;;16.48;2.33;;;;;;;13.39;61.66;101759.63;4871930;28;122720;-71
2022/09/19 04:06:17;;;;;;;11.55;1.80;;;;;;;13.38;61.57;101767.66;4883403;28;117969;-71
2022/09/19 04:08:44;;;;;;;9.35;1.73;;;;;;;13.35;61.48;101763.31;4872914;28;118954;-71
2022/09/19 04:11:13;;;;;;;8.48;1.70;;;;;;;13.32;61.65;101758.16;4869971;28;123575;-71
2022/09/19 04:13:40;;;;;;;8.70;1.63;;;;;;;13.30;61.58;101760.00;4869577;28;122090;-71
2022/09/19 04:16:17;;;;;;;10.27;1.83;;;;;;;13.29;61.43;101773.34;4884123;28;118896;-71
2022/09/19 04:18:49;;;;;;;18.65;1.85;;;;;;;13.27;61.34;101769.88;4868442;28;118551;-71
2022/09/19 04:21:45;;;;;;;12.95;2.10;;;;;;;13.23;61.37;101769.13;4832044;28;124787;-70
2022/09/19 04:24:42;;;;;;;10.15;1.95;;;;;;;13.20;61.25;101771.91;4884933;28;123260;-71
2022/09/19 04:27:18;;;;;;;15.35;1.90;;;;;;;13.18;61.44;101776.44;4869179;28;120353;-71
2022/09/19 04:29:49;;;;;;;7.97;1.92;;;;;;;13.16;61.31;101772.97;4867284;28;119880;-69
2022/09/19 04:32:16;;;;;;;14.52;1.95;;;;;;;13.14;61.32;101781.00;4870174;28;124800;-69
2022/09/19 04:34:47;;;;;;;11.88;1.98;;;;;;;13.12;61.35;101782.00;4883815;28;123188;-68
2022/09/19 04:37:15;;;;;;;6.95;1.55;;;;;;;13.11;61.42;101785.56;4871164;28;119060;-69
2022/09/19 04:39:48;;;;;;;10.80;2.15;;;;;;;13.10;61.43;101781.19;4881484;28;118155;-69
2022/09/19 04:42:17;;;;;;;13.43;1.95;;;;;;;13.09;61.47;101782.13;4852685;28;123488;-69
2022/09/19 04:44:44;;;;;;;16.17;1.85;;;;;;;13.08;61.37;101791.03;4879252;28;123618;-68
2022/09/19 04:47:18;;;;;;;15.65;2.13;;;;;;;13.07;61.42;101797.28;4869606;28;119534;-69
2022/09/19 04:49:45;;;;;;;9.38;1.80;;;;;;;13.05;61.58;101787.59;4883663;28;119431;-69
2022/09/19 04:52:13;;;;;;;8.25;2.00;;;;;;;13.06;61.48;101793.75;4867507;28;123663;-69
2022/09/19 04:54:45;;;;;;;9.35;1.83;;;;;;;13.07;61.69;101797.28;4884181;28;124108;-69
2022/09/19 04:57:12;;;;;;;11.75;2.13;;;;;;;13.04;61.65;101801.78;4885153;28;119455;-69
2022/09/19 04:59:41;;;;;;;14.70;2.20;;;;;;;13.05;61.66;101802.66;4867907;28;118033;-69
2022/09/19 05:02:10;;;;;;;11.55;1.90;;;;;;;13.08;61.70;101796.38;4883854;28;124047;-69
2022/09/19 05:04:38;;;;;;;12.93;2.10;;;;;;;13.11;61.90;101796.22;4868915;28;123470;-68
2022/09/19 05:07:06;;;;;;;9.27;1.52;;;;;;;13.13;61.86;101794.34;4868194;28;118700;-69
2022/09/19 05:09:35;;;;;;;11.45;1.73;;;;;;;13.17;61.82;101801.31;4884052;28;118736;-68
2022/09/19 05:12:09;;;;;;;8.65;2.00;;;;;;;13.20;61.83;101806.50;4865799;28;123580;-68
2022/09/19 05:14:40;;;;;;;12.90;2.13;;;;;;;13.23;61.91;101806.38;4868951;28;123346;-68
2022/09/19 05:17:08;;;;;;;9.95;1.90;;;;;;;13.26;61.98;101811.59;4875087;28;119564;-69
2022/09/19 05:19:38;;;;;;;12.25;2.35;;;;;;;13.29;61.92;101808.78;4868364;28;119308;-68
2022/09/19 05:22:06;;;;;;;14.05;1.90;;;;;;;13.32;61.86;101811.34;4868275;28;124738;-68
2022/09/19 05:24:37;;;;;;;10.80;2.00;;;;;;;13.35;61.90;101815.66;4868019;28;122725;-69
2022/09/19 05:27:04;;;;;;;10.32;2.30;;;;;;;13.37;61.89;101822.69;4867872;28;118799;-69
2022/09/19 05:29:36;;;;;;;13.02;1.85;;;;;;;13.38;61.83;101821.75;4876272;28;117225;-69
2022/09/19 05:32:04;;;;;;;13.93;1.65;;;;;;;13.40;61.84;101827.84;4867596;28;122619;-69
2022/09/19 05:34:40;;;;;;;12.70;2.13;;;;;;;13.42;61.81;101823.34;4870030;28;124149;-70
2022/09/19 05:37:22;;;;;;;13.18;2.10;;;;;;;13.44;61.78;101826.81;4882063;28;118587;-70
2022/09/19 05:40:10;;;;;;;9.10;1.90;;;;;;;13.46;62.01;101839.19;4872249;28;118648;-70
2022/09/19 05:42:47;;;;;;;14.38;2.22;;;;;;;13.47;61.83;101836.47;4883039;28;123174;-70
2022/09/19 05:45:20;;;;;;;8.10;1.90;;;;;;;13.50;61.75;101838.13;4883127;28;122853;-70
2022/09/19 05:47:50;;;;;;;13.45;1.80;;;;;;;13.51;61.55;101837.22;4865054;28;118884;-70
2022/09/19 05:50:17;;;;;;;8.77;1.60;;;;;;;13.53;61.65;101843.34;4883434;28;118366;-70
2022/09/19 05:55:30;;;;;;;11.93;2.30;;;;;;;13.56;61.68;101851.19;4884916;28;123069;-70
2022/09/19 05:58:25;;;;;;;15.23;2.22;;;;;;;13.58;61.81;101844.00;4878245;28;118805;-69
2022/09/19 06:00:52;;;;;;;11.13;2.08;;;;;;;13.60;61.65;101847.47;4867977;28;118791;-70
2022/09/19 06:03:21;;;;;;;15.00;2.45;;;;;;;13.60;61.68;101855.47;4869374;28;124457;-70
2022/09/19 06:05:52;;;;;;;8.35;1.85;;;;;;;13.62;61.63;101861.59;4880446;28;123340;-70
2022/09/19 06:08:21;;;;;;;15.98;2.20;;;;;;;13.63;61.59;101857.97;4867644;28;120857;-70
2022/09/19 06:10:49;;;;;;;12.75;2.28;;;;;;;13.66;61.75;101857.88;4879294;28;119876;-71
2022/09/19 06:13:20;;;;;;;16.13;2.45;;;;;;;13.69;61.75;101862.19;4866988;28;123842;-71
2022/09/19 06:15:48;;;;;;;10.43;2.00;;;;;;;13.71;61.60;101871.84;4882312;28;123529;-70
2022/09/19 06:18:33;;;;;;;9.48;2.20;;;;;;;13.73;61.68;101864.66;4866039;28;119433;-70
2022/09/19 06:21:04;;;;;;;12.85;2.22;;;;;;;13.77;61.76;101866.28;4868839;28;118261;-70
2022/09/19 06:23:37;;;;;;;11.20;2.30;;;;;;;13.81;61.80;101870.53;4886465;28;123712;-70
2022/09/19 06:26:04;;;;;;;12.65;2.20;;;;;;;13.86;61.66;101880.13;4874551;28;123217;-69
2022/09/19 06:28:34;;;;;;;9.65;2.03;;;;;;;13.89;61.79;101885.31;4885673;28;118518;-70
2022/09/19 06:31:07;;;;;;;10.38;1.98;;;;;;;13.90;61.81;101885.25;4877684;28;118744;-70
2022/09/19 06:33:55;;;;;;;10.02;2.53;;;;;;;13.92;61.56;101887.84;4868740;28;123635;-70
2022/09/19 06:36:28;;;;;;;14.40;2.40;;;;;;;13.95;61.36;101882.41;4881136;28;123122;-70
2022/09/19 06:38:56;;;;;;;9.65;2.30;;;;;;;13.96;61.44;101886.81;4872981;28;119551;-70
2022/09/19 06:41:34;;;;;;;13.88;2.75;;;;;;;14.00;61.38;101891.06;4891348;28;118137;-70
2022/09/19 06:44:14;;;;;;;11.50;2.08;;;;;;;14.07;61.71;101895.19;4883916;28;124957;-70
2022/09/19 06:47:00;;;;;;;9.27;2.13;;;;;;;14.14;61.90;101893.97;4875346;28;124530;-70
2022/09/19 06:49:36;;;;;;;11.75;1.90;;;;;;;14.21;61.81;101897.25;4884788;28;118782;-70
2022/09/19 06:52:46;;;;;;;11.05;2.45;;;;;;;14.31;61.99;101892.38;4808508;29;119537;-70
2022/09/19 06:55:13;;;;;;;12.98;2.42;;;;;;;14.43;62.26;101896.31;4793193;29;123852;-70
2022/09/19 06:57:54;;;;;;;11.38;2.30;;;;;;;14.57;62.32;101894.78;4838599;28;123502;-70
2022/09/19 07:00:24;;;;;;;10.30;2.33;;;;;;;14.75;62.34;101902.91;4885418;28;120778;-70
2022/09/19 07:02:59;;;;;;;9.70;2.15;;;;;;;14.88;62.26;101904.06;4868858;28;120089;-70
2022/09/19 07:05:30;;;;;;;11.32;2.28;;;;;;;15.05;62.04;101902.41;4869915;28;124332;-70
2022/09/19 07:08:15;;;;;;;13.25;1.98;;;;;;;15.22;62.08;101912.28;4870449;28;123320;-71
2022/09/19 07:10:42;;;;;;;11.93;2.60;;;;;;;15.37;61.85;101909.78;4870385;28;118343;-70
2022/09/19 07:13:13;;;;;;;11.13;2.20;;;;;;;15.50;61.66;101911.81;4869757;28;118287;-70
2022/09/19 07:15:42;;;;;;;8.38;2.33;;;;;;;15.63;61.69;101917.44;4870653;28;123755;-70
2022/09/19 07:18:11;;;;;;;9.43;2.47;;;;;;;15.76;61.39;101930.16;4869324;28;124653;-73
2022/09/19 07:20:39;;;;;;;8.75;2.10;;;;;;;15.89;61.40;101924.19;4871401;28;119172;-70
2022/09/19 07:23:30;;;;;;;8.70;2.20;;;;;;;16.04;61.53;101923.41;4870842;28;119068;-72
2022/09/19 07:26:23;;;;;;;11.23;2.22;;;;;;;16.24;61.42;101924.22;4843461;28;124506;-71
2022/09/19 07:28:50;;;;;;;8.55;2.10;;;;;;;16.38;61.20;101927.03;4853960;28;123160;-71
2022/09/19 07:31:22;;;;;;;9.68;1.90;;;;;;;16.54;61.05;101932.47;4885791;28;118611;-72
2022/09/19 07:33:49;;;;;;;8.77;2.13;;;;;;;16.68;60.85;101923.69;4866803;28;118284;-72
2022/09/19 07:36:21;;;;;;;9.90;1.95;;;;;;;16.83;60.73;101924.72;4884069;28;123239;-70
2022/09/19 07:38:48;;;;;;;8.52;1.80;;;;;;;17.00;60.62;101926.47;4884878;28;125646;-71
2022/09/19 07:41:48;;;;;;;10.82;2.00;;;;;;;17.15;60.37;101928.28;4840679;28;119817;-71
2022/09/19 07:44:32;;;;;;;10.38;2.30;;;;;;;17.32;60.47;101935.38;4869525;28;118113;-73
2022/09/19 07:47:28;;;;;;;8.85;2.10;;;;;;;17.46;59.92;101938.16;4886005;28;124696;-71
2022/09/19 07:50:07;;;;;;;8.77;2.00;;;;;;;17.60;59.73;101929.31;4854764;28;123154;-71
2022/09/19 07:52:36;;;;;;;8.77;1.92;;;;;;;17.73;59.58;101939.34;4868567;28;119533;-72
2022/09/19 07:55:06;;;;;;;7.45;1.60;;;;;;;17.82;59.24;101939.69;4884373;28;120193;-72
2022/09/19 07:57:33;;;;;;;7.70;1.60;;;;;;;17.91;59.08;101943.66;4868243;28;123368;-71
2022/09/19 08:00:00;;;;;;;9.55;1.60;;;;;;;18.00;58.66;101943.13;4887078;28;122978;-71
2022/09/19 08:02:31;;;;;;;7.82;1.77;;;;;;;18.09;58.40;101953.31;4884835;28;119090;-71
2022/09/19 08:04:59;;;;;;;7.18;1.67;;;;;;;18.20;58.55;101949.13;4871861;28;119819;-71
2022/09/19 08:07:26;;;;;;;9.55;1.63;;;;;;;18.28;58.28;101946.84;4869345;28;123664;-72
2022/09/19 08:09:53;;;;;;;5.30;1.30;;;;;;;18.34;57.95;101946.47;4885426;28;123184;-72
2022/09/19 08:12:23;;;;;;;10.15;1.42;;;;;;;18.39;57.85;101955.13;4870922;28;119717;-72
2022/09/19 08:15:00;;;;;;;8.02;1.30;;;;;;;18.48;57.88;101954.56;4869425;28;118418;-72
2022/09/19 08:17:28;;;;;;;9.68;1.40;;;;;;;18.57;57.58;101952.25;4884455;28;124006;-72
2022/09/19 08:19:56;;;;;;;5.25;1.50;;;;;;;18.62;57.27;101955.53;4885221;28;122949;-72
2022/09/19 08:22:24;;;;;;;12.02;1.50;;;;;;;18.65;57.20;101960.72;4887900;28;118647;-75
2022/09/19 08:24:57;;;;;;;6.47;1.60;;;;;;;18.66;56.82;101962.44;4886716;28;118316;-71
2022/09/19 08:27:24;;;;;;;9.23;1.80;;;;;;;18.65;56.81;101955.34;4878062;28;123055;-71
2022/09/19 08:29:52;;;;;;;12.70;1.60;;;;;;;18.65;56.59;101972.31;4868110;28;123095;-70
2022/09/19 08:32:19;;;;;;;9.07;1.40;;;;;;;18.63;56.26;101973.38;4891259;28;117929;-69
2022/09/19 08:34:46;;;;;;;6.07;1.45;;;;;;;18.59;55.99;101977.19;4876826;28;117211;-70
2022/09/19 08:37:15;;;;;;;7.20;1.40;;;;;;;18.60;56.16;101969.03;4875822;28;122403;-68
2022/09/19 08:40:15;;;;;;;8.30;1.60;;;;;;;18.66;56.55;101973.16;4893742;28;122534;-69
2022/09/19 08:42:53;;;;;;;9.00;1.42;;;;;;;18.78;56.60;101972.44;4870036;28;119074;-69
2022/09/19 08:45:31;;;;;;;7.32;1.35;;;;;;;18.89;56.13;101974.47;4890928;28;120112;-70
2022/09/19 08:48:05;;;;;;;9.77;1.27;;;;;;;18.98;55.98;101981.09;4890800;28;122930;-69
2022/09/19 08:50:37;;;;;;;5.20;1.35;;;;;;;19.05;55.87;101985.13;4877927;28;122761;-70
2022/09/19 08:53:19;;;;;;;7.57;1.25;;;;;;;19.11;55.30;101984.72;4878199;28;118553;-70
2022/09/19 08:55:48;;;;;;;8.40;1.50;;;;;;;19.19;55.18;101987.81;4869205;28;118329;-70
2022/09/19 08:58:23;;;;;;;8.05;1.55;;;;;;;19.26;54.85;101986.44;4869047;28;123390;-71
2022/09/19 09:01:10;;;;;;;6.03;1.23;;;;;;;19.34;54.87;101977.03;4882061;28;122235;-69
2022/09/19 09:04:07;;;;;;;8.02;1.42;;;;;;;19.39;54.52;101982.97;4872996;28;119228;-70
2022/09/19 09:06:51;;;;;;;7.68;1.50;;;;;;;19.44;54.86;101980.88;4867091;28;118809;-71
2022/09/19 09:09:31;;;;;;;8.15;1.40;;;;;;;19.49;54.76;101989.47;4853248;28;123636;-70
2022/09/19 09:12:31;;;;;;;7.35;1.10;;;;;;;19.49;54.36;101988.63;4883657;28;124413;-70
2022/09/19 09:15:28;;;;;;;5.65;1.60;;;;;;;19.48;54.06;101987.78;4868586;28;119649;-70
2022/09/19 09:19:06;;;;;;;9.20;1.58;;;;;;;19.44;54.16;101986.25;4875352;28;117831;-70
2022/09/19 09:21:40;;;;;;;7.43;1.17;;;;;;;19.45;54.25;101971.84;4827605;28;123415;-70
2022/09/19 09:24:22;;;;;;;8.05;1.63;;;;;;;19.49;54.36;101973.34;4868751;28;123629;-71
2022/09/19 09:27:33;;;;;;;6.75;1.27;;;;;;;19.60;54.45;101981.59;4869304;28;118441;-70
2022/09/19 09:30:16;;;;;;;6.97;1.40;;;;;;;19.69;54.17;101976.59;4878338;28;118642;-71
2022/09/19 09:33:00;;;;;;;9.20;1.90;;;;;;;19.75;53.85;101978.91;4885717;28;123967;-70
2022/09/19 09:35:34;;;;;;;5.30;1.42;;;;;;;19.81;53.42;101973.09;4864503;28;123106;-70
2022/09/19 09:38:24;;;;;;;7.05;1.58;;;;;;;19.84;53.59;101967.53;4866916;28;120459;-70
2022/09/19 09:44:07;;;;;;;8.98;1.60;;;;;;;19.92;53.56;101965.19;4887258;28;123894;-70
2022/09/19 09:46:53;;;;;;;6.03;1.60;;;;;;;19.95;53.61;101970.38;4872751;28;123596;-70
2022/09/19 09:49:29;;;;;;;7.70;1.70;;;;;;;20.01;53.84;101963.72;4864172;28;119418;-70
2022/09/19 09:52:06;;;;;;;7.65;1.50;;;;;;;20.10;53.66;101968.50;4855678;28;118037;-70
2022/09/19 09:58:13;;;;;;;9.13;1.80;;;;;;;20.11;52.84;101972.88;4870955;28;125285;-71
2022/09/19 10:03:49;;;;;;;7.97;1.50;;;;;;;20.08;52.80;101978.50;4867889;28;119452;-70
2022/09/19 10:06:46;;;;;;;6.57;1.55;;;;;;;20.15;52.42;101976.22;4876873;28;124147;-70
2022/09/19 10:09:52;;;;;;;6.75;1.38;;;;;;;20.20;52.39;101974.09;4887374;28;123564;-70
2022/09/19 10:12:44;;;;;;;5.32;1.35;;;;;;;20.30;52.32;101969.81;4852547;28;118796;-70
2022/09/19 10:15:24;;;;;;;8.73;1.50;;;;;;;20.38;51.75;101978.25;4884182;28;118818;-70
2022/09/19 10:18:06;;;;;;;7.03;1.38;;;;;;;20.46;51.47;101968.78;4880792;28;123293;-70
2022/09/19 10:20:51;;;;;;;8.20;1.80;;;;;;;20.52;50.95;101973.72;4899848;28;122986;-70
2022/09/19 10:23:29;;;;;;;5.15;1.00;;;;;;;20.54;50.61;101987.94;4877284;28;117621;-70
2022/09/19 10:26:04;;;;;;;4.93;1.10;;;;;;;20.47;50.16;102013.53;4867460;28;119359;-71
2022/09/19 10:28:43;;;;;;;4.20;0.88;;;;;;;20.26;50.10;102011.34;4871674;28;123876;-72
2022/09/19 10:31:34;;;;;;;3.28;0.85;;;;;;;19.89;50.61;102008.44;4867729;28;123350;-71
2022/09/19 10:34:32;;;;;;;2.35;0.70;;;;;;;19.55;51.04;102009.72;4868587;28;120246;-72
2022/09/19 10:37:23;;;;;;;2.50;0.60;;;;;;;19.25;51.46;102019.66;4888163;28;119273;-71
2022/09/19 10:39:51;;;;;;;4.68;0.80;;;;;;;19.00;51.92;102024.81;4873560;28;123429;-71
2022/09/19 10:42:36;;;;;;;3.05;0.93;;;;;;;18.76;52.18;102017.28;4870743;28;123155;-71
2022/09/19 10:45:19;;;;;;;3.58;1.00;;;;;;;18.52;52.58;102027.69;4882241;28;118446;-71
2022/09/19 10:47:50;;;;;;;3.92;0.68;;;;;;;18.34;52.90;102021.56;4886067;28;117595;-71
2022/09/19 10:50:24;;;;;;;3.70;1.02;;;;;;;18.17;53.33;102024.38;4885999;28;125955;-70
2022/09/19 10:53:04;;;;;;;2.58;0.88;;;;;;;17.99;53.80;102021.81;4885822;28;123070;-71
2022/09/19 10:55:35;;;;;;;4.93;1.10;;;;;;;17.86;54.44;102020.81;4867717;28;119112;-71
2022/09/19 10:58:19;;;;;;;5.40;1.02;;;;;;;17.77;54.75;102015.94;4885350;28;118046;-71
2022/09/19 11:01:01;;;;;;;3.25;1.00;;;;;;;17.69;55.01;102009.19;4869418;28;122629;-71
2022/09/19 11:03:39;;;;;;;5.20;1.00;;;;;;;17.66;55.21;102009.34;4885853;28;122937;-71
2022/09/19 11:06:10;;;;;;;3.03;0.75;;;;;;;17.65;55.60;102018.34;4890620;28;118238;-71
2022/09/19 11:08:44;;;;;;;3.15;1.00;;;;;;;17.66;56.12;102020.06;4883101;28;118987;-71
2022/09/19 11:11:37;;;;;;;3.35;1.10;;;;;;;17.66;56.06;102009.34;4865596;28;123908;-71
2022/09/19 11:14:18;;;;;;;2.95;1.23;;;;;;;17.65;56.36;102014.78;4868727;28;122038;-71
2022/09/19 11:17:18;;;;;;;5.45;1.10;;;;;;;17.65;56.57;102013.00;4869791;28;118781;-71
2022/09/19 11:20:16;;;;;;;3.97;0.90;;;;;;;17.66;56.44;102014.69;4869686;28;117636;-71
2022/09/19 11:23:07;;;;;;;4.55;0.90;;;;;;;17.68;56.60;102015.47;4861000;28;123506;-71
2022/09/19 11:26:02;;;;;;;4.57;1.02;;;;;;;17.69;56.65;102017.22;4871961;28;123444;-71
2022/09/19 11:29:21;;;;;;;4.60;1.00;;;;;;;17.74;56.90;102021.44;4855706;28;120023;-71
2022/09/19 11:32:16;;;;;;;5.38;1.20;;;;;;;17.78;56.79;102025.69;4848701;28;119466;-70
2022/09/19 11:35:18;;;;;;;4.25;1.15;;;;;;;17.83;57.04;102020.94;4883123;28;123458;-70
2022/09/19 11:38:34;;;;;;;5.30;1.08;;;;;;;17.89;57.18;102015.25;4884822;28;123293;-71
2022/09/19 11:42:00;;;;;;;3.55;1.10;;;;;;;17.98;57.24;102009.38;4851876;28;119371;-70
2022/09/19 11:45:06;;;;;;;8.02;1.20;;;;;;;18.11;57.85;102008.66;4884121;28;118195;-71
2022/09/19 11:47:51;;;;;;;3.88;1.45;;;;;;;18.28;57.99;102011.22;4865382;28;123251;-70
2022/09/19 11:50:32;;;;;;;6.82;1.45;;;;;;;18.44;58.10;102006.69;4870208;28;122837;-70
2022/09/19 11:53:23;;;;;;;4.90;1.30;;;;;;;18.61;58.00;102007.47;4867827;28;119737;-70
2022/09/19 11:56:59;;;;;;;6.32;1.30;;;;;;;18.79;57.44;102011.72;4883722;28;118334;-70
2022/09/19 11:59:41;;;;;;;8.27;1.33;;;;;;;18.95;56.55;102021.53;4795447;29;124038;-71
2022/09/19 12:02:36;;;;;;;4.50;1.02;;;;;;;19.01;55.56;102022.03;4885666;28;123290;-71
2022/09/19 12:05:17;;;;;;;5.45;1.17;;;;;;;19.01;55.08;102021.19;4870376;28;120496;-70
2022/09/19 12:07:49;;;;;;;4.35;0.90;;;;;;;18.99;54.73;102023.09;4885333;28;118140;-70
2022/09/19 12:10:29;;;;;;;4.57;1.10;;;;;;;19.01;54.82;102015.81;4868851;28;122585;-71
2022/09/19 12:13:02;;;;;;;4.88;1.20;;;;;;;19.04;54.31;102020.97;4885525;28;123473;-70
2022/09/19 12:15:39;;;;;;;4.90;1.20;;;;;;;19.05;53.95;102030.78;4881604;28;119519;-72
2022/09/19 12:18:13;;;;;;;5.35;1.20;;;;;;;19.00;53.98;102024.81;4868322;28;118030;-71